Atlas Voyager — V7OI6 — position and weather

sailwx.info

Track history (hours):
 
Tides and Currents Weather Stations Pressure Air Temp Water Temp Dewpoint Dewpoint Depression Visibility Wind Speed Wind Dir Waves Ship Positions

Atlas Voyager

Last reported at 2017-Nov-23 19:52 UTC. Time now 2017-Dec-11 11:39 UTC.
Position N 44°29' E 037°34'.
Warning: this ship's position is 17 days out of date.

Length 249 m; draft 11.6 m.

Type: Tanker. MMSI: 538003095.

Date/timePositionNaut miles runAvg speedWind from/ knotsBaromVisibWave heightAir tempDewpointWater temp
2017-Nov-23 19:52N 44°29' E 037°34'410.9
2017-Nov-23 19:30N 44°31' E 037°39'510.8
2017-Nov-23 19:00N 44°34' E 037°45'510.7
2017-Nov-23 18:30N 44°38' E 037°50'3 6.3
2017-Nov-23 18:00N 44°41' E 037°50'1 1.9
2017-Nov-23 17:30N 44°42' E 037°50'0 0.0
2017-Nov-23 16:58N 44°42' E 037°50'0 0.0
2017-Nov-23 16:28N 44°42' E 037°50'0 0.0
2017-Nov-23 15:58N 44°42' E 037°50'0 0.0
2017-Nov-23 15:28N 44°42' E 037°50'0 0.0
2017-Nov-23 14:58N 44°42' E 037°50'0 0.0
2017-Nov-23 14:25N 44°42' E 037°50'0 0.0
2017-Nov-23 13:58N 44°42' E 037°50'0 0.0
2017-Nov-23 13:31N 44°42' E 037°50'0 0.0
2017-Nov-23 13:00N 44°42' E 037°50'0 0.0
2017-Nov-23 12:30N 44°42' E 037°50'0 0.0
2017-Nov-23 12:00N 44°42' E 037°50'0 0.0
2017-Nov-23 11:30N 44°42' E 037°50'0 0.0
2017-Nov-23 11:00N 44°42' E 037°50'0 0.0
2017-Nov-23 10:30N 44°42' E 037°50'0 0.0
2017-Nov-23 10:00N 44°42' E 037°50'0 0.0
2017-Nov-23 09:30N 44°42' E 037°50'0 0.0
2017-Nov-23 09:00N 44°42' E 037°50'0 0.0
2017-Nov-23 08:30N 44°42' E 037°50'0 0.0
2017-Nov-23 08:00N 44°42' E 037°50'0 0.0
2017-Nov-23 07:30N 44°42' E 037°50'0 0.0
2017-Nov-23 07:00N 44°42' E 037°50'0 0.0
2017-Nov-23 06:30N 44°42' E 037°50'0 0.0
2017-Nov-23 06:00N 44°42' E 037°50'0 0.0
2017-Nov-23 05:30N 44°42' E 037°50'0 0.0
2017-Nov-23 05:00N 44°42' E 037°50'0 0.0
2017-Nov-23 04:27N 44°42' E 037°50'0 0.0
2017-Nov-23 04:00N 44°42' E 037°50'0 0.0
2017-Nov-23 03:30N 44°42' E 037°50'0 0.0
2017-Nov-23 03:00N 44°42' E 037°50'0 0.0
2017-Nov-23 02:30N 44°42' E 037°50'0 0.0
2017-Nov-23 02:00N 44°42' E 037°50'0 0.0
2017-Nov-23 01:30N 44°42' E 037°50'0 0.0
2017-Nov-23 01:00N 44°42' E 037°50'0 0.0
2017-Nov-23 00:27N 44°42' E 037°50'0 0.0
2017-Nov-23 00:00N 44°42' E 037°50'0 0.0
2017-Nov-22 23:30N 44°42' E 037°50'0 0.0
2017-Nov-22 23:00N 44°42' E 037°50'0 0.0
2017-Nov-22 22:30N 44°42' E 037°50'0 0.0
2017-Nov-22 22:00N 44°42' E 037°50'0 0.0
2017-Nov-22 21:30N 44°42' E 037°50'0 0.0
2017-Nov-22 21:00N 44°42' E 037°50'0 0.0
2017-Nov-22 20:30N 44°42' E 037°50'0 0.0
2017-Nov-22 20:00N 44°42' E 037°50'0 0.0
2017-Nov-22 19:30N 44°42' E 037°50'  
2017-Nov-15 12:01N 40°55' E 028°58'0 6.5
2017-Nov-15 11:59N 40°55' E 028°58'4 7.0
2017-Nov-15 11:21N 40°52' E 028°53'5 0.5
2017-Nov-15 01:36N 40°47' E 028°54'0 0.3
2017-Nov-15 01:27N 40°47' E 028°54'0 0.7
2017-Nov-15 00:53N 40°47' E 028°54'1 1.6
2017-Nov-15 00:30N 40°48' E 028°53'0 1.0
2017-Nov-15 00:00N 40°48' E 028°53'1 1.0
2017-Nov-14 23:29N 40°48' E 028°52'0 1.0
2017-Nov-14 23:00N 40°48' E 028°51'1 0.7
2017-Nov-14 21:46N 40°49' E 028°50'1 1.0
2017-Nov-14 21:12N 40°49' E 028°50'1 2.2
2017-Nov-14 20:58N 40°49' E 028°49'3 6.6
2017-Nov-14 20:30N 40°49' E 028°45'  
Track history (hours):
 
Tides and Currents Weather Stations Pressure Air Temp Water Temp Dewpoint Dewpoint Depression Visibility Wind Speed Wind Dir Waves Ship Positions

Atlas Voyager

Last reported at 2017-Nov-23 19:52 UTC. Time now 2017-Dec-11 11:39 UTC.
Position N 44°29' E 037°34'.
Warning: this ship's position is 17 days out of date.

Length 249 m; draft 11.6 m.

Type: Tanker. MMSI: 538003095.

Date/timePositionNaut miles runAvg speedWind from/ knotsBaromVisibWave heightAir tempDewpointWater temp
2017-Nov-23 19:52N 44°29' E 037°34'410.9
2017-Nov-23 19:30N 44°31' E 037°39'510.8
2017-Nov-23 19:00N 44°34' E 037°45'510.7
2017-Nov-23 18:30N 44°38' E 037°50'3 6.3
2017-Nov-23 18:00N 44°41' E 037°50'1 1.9
2017-Nov-23 17:30N 44°42' E 037°50'0 0.0
2017-Nov-23 16:58N 44°42' E 037°50'0 0.0
2017-Nov-23 16:28N 44°42' E 037°50'0 0.0
2017-Nov-23 15:58N 44°42' E 037°50'0 0.0
2017-Nov-23 15:28N 44°42' E 037°50'0 0.0
2017-Nov-23 14:58N 44°42' E 037°50'0 0.0
2017-Nov-23 14:25N 44°42' E 037°50'0 0.0
2017-Nov-23 13:58N 44°42' E 037°50'0 0.0
2017-Nov-23 13:31N 44°42' E 037°50'0 0.0
2017-Nov-23 13:00N 44°42' E 037°50'0 0.0
2017-Nov-23 12:30N 44°42' E 037°50'0 0.0
2017-Nov-23 12:00N 44°42' E 037°50'0 0.0
2017-Nov-23 11:30N 44°42' E 037°50'0 0.0
2017-Nov-23 11:00N 44°42' E 037°50'0 0.0
2017-Nov-23 10:30N 44°42' E 037°50'0 0.0
2017-Nov-23 10:00N 44°42' E 037°50'0 0.0
2017-Nov-23 09:30N 44°42' E 037°50'0 0.0
2017-Nov-23 09:00N 44°42' E 037°50'0 0.0
2017-Nov-23 08:30N 44°42' E 037°50'0 0.0
2017-Nov-23 08:00N 44°42' E 037°50'0 0.0
2017-Nov-23 07:30N 44°42' E 037°50'0 0.0
2017-Nov-23 07:00N 44°42' E 037°50'0 0.0
2017-Nov-23 06:30N 44°42' E 037°50'0 0.0
2017-Nov-23 06:00N 44°42' E 037°50'0 0.0
2017-Nov-23 05:30N 44°42' E 037°50'0 0.0
2017-Nov-23 05:00N 44°42' E 037°50'0 0.0
2017-Nov-23 04:27N 44°42' E 037°50'0 0.0
2017-Nov-23 04:00N 44°42' E 037°50'0 0.0
2017-Nov-23 03:30N 44°42' E 037°50'0 0.0
2017-Nov-23 03:00N 44°42' E 037°50'0 0.0
2017-Nov-23 02:30N 44°42' E 037°50'0 0.0
2017-Nov-23 02:00N 44°42' E 037°50'0 0.0
2017-Nov-23 01:30N 44°42' E 037°50'0 0.0
2017-Nov-23 01:00N 44°42' E 037°50'0 0.0
2017-Nov-23 00:27N 44°42' E 037°50'0 0.0
2017-Nov-23 00:00N 44°42' E 037°50'0 0.0
2017-Nov-22 23:30N 44°42' E 037°50'0 0.0
2017-Nov-22 23:00N 44°42' E 037°50'0 0.0
2017-Nov-22 22:30N 44°42' E 037°50'0 0.0
2017-Nov-22 22:00N 44°42' E 037°50'0 0.0
2017-Nov-22 21:30N 44°42' E 037°50'0 0.0
2017-Nov-22 21:00N 44°42' E 037°50'0 0.0
2017-Nov-22 20:30N 44°42' E 037°50'0 0.0
2017-Nov-22 20:00N 44°42' E 037°50'0 0.0
2017-Nov-22 19:30N 44°42' E 037°50'  
2017-Nov-15 12:01N 40°55' E 028°58'0 6.5
2017-Nov-15 11:59N 40°55' E 028°58'4 7.0
2017-Nov-15 11:21N 40°52' E 028°53'5 0.5
2017-Nov-15 01:36N 40°47' E 028°54'0 0.3
2017-Nov-15 01:27N 40°47' E 028°54'0 0.7
2017-Nov-15 00:53N 40°47' E 028°54'1 1.6
2017-Nov-15 00:30N 40°48' E 028°53'0 1.0
2017-Nov-15 00:00N 40°48' E 028°53'1 1.0
2017-Nov-14 23:29N 40°48' E 028°52'0 1.0
2017-Nov-14 23:00N 40°48' E 028°51'1 0.7
2017-Nov-14 21:46N 40°49' E 028°50'1 1.0
2017-Nov-14 21:12N 40°49' E 028°50'1 2.2
2017-Nov-14 20:58N 40°49' E 028°49'3 6.6
2017-Nov-14 20:30N 40°49' E 028°45'  

Dump ship's entire track history